sensor_id;sensor_type;location;lat;lon;timestamp;temperature;humidity
7494;DHT22;3788;49.902;8.590;2023-10-19T00:01:13;12.10;99.90
7494;DHT22;3788;49.902;8.590;2023-10-19T00:03:42;12.20;99.90
7494;DHT22;3788;49.902;8.590;2023-10-19T00:06:09;12.10;99.90
7494;DHT22;3788;49.902;8.590;2023-10-19T00:08:37;12.20;99.90
7494;DHT22;3788;49.902;8.590;2023-10-19T00:11:07;12.20;99.90
7494;DHT22;3788;49.902;8.590;2023-10-19T00:13:34;12.20;99.90
7494;DHT22;3788;49.902;8.590;2023-10-19T00:16:03;12.20;99.90
7494;DHT22;3788;49.902;8.590;2023-10-19T00:18:36;12.30;99.90
7494;DHT22;3788;49.902;8.590;2023-10-19T00:21:09;12.30;99.90
7494;DHT22;3788;49.902;8.590;2023-10-19T00:23:45;12.30;99.90
7494;DHT22;3788;49.902;8.590;2023-10-19T00:26:15;12.30;99.90
7494;DHT22;3788;49.902;8.590;2023-10-19T00:28:44;12.30;99.90
7494;DHT22;3788;49.902;8.590;2023-10-19T00:31:11;12.40;99.90
7494;DHT22;3788;49.902;8.590;2023-10-19T00:33:39;12.40;99.90
7494;DHT22;3788;49.902;8.590;2023-10-19T00:36:07;12.40;99.90
7494;DHT22;3788;49.902;8.590;2023-10-19T00:38:35;12.40;99.90
7494;DHT22;3788;49.902;8.590;2023-10-19T00:41:16;12.40;99.90
7494;DHT22;3788;49.902;8.590;2023-10-19T00:43:47;12.40;99.90
7494;DHT22;3788;49.902;8.590;2023-10-19T00:46:18;12.40;99.90
7494;DHT22;3788;49.902;8.590;2023-10-19T00:48:52;12.50;99.90
7494;DHT22;3788;49.902;8.590;2023-10-19T00:51:21;12.50;99.90
7494;DHT22;3788;49.902;8.590;2023-10-19T00:54:10;12.50;99.90
7494;DHT22;3788;49.902;8.590;2023-10-19T00:56:42;12.50;99.90
7494;DHT22;3788;49.902;8.590;2023-10-19T00:59:18;12.50;99.90
7494;DHT22;3788;49.902;8.590;2023-10-19T01:01:50;12.50;99.90
7494;DHT22;3788;49.902;8.590;2023-10-19T01:04:19;12.50;99.90
7494;DHT22;3788;49.902;8.590;2023-10-19T01:06:48;12.50;99.90
7494;DHT22;3788;49.902;8.590;2023-10-19T01:09:27;12.50;99.90
7494;DHT22;3788;49.902;8.590;2023-10-19T01:11:54;12.50;99.90
7494;DHT22;3788;49.902;8.590;2023-10-19T01:14:26;12.60;99.90
7494;DHT22;3788;49.902;8.590;2023-10-19T01:16:55;12.60;99.90
7494;DHT22;3788;49.902;8.590;2023-10-19T01:19:22;12.60;99.90
7494;DHT22;3788;49.902;8.590;2023-10-19T01:21:49;12.60;99.90
7494;DHT22;3788;49.902;8.590;2023-10-19T01:24:20;12.60;99.90
7494;DHT22;3788;49.902;8.590;2023-10-19T01:26:57;12.70;99.90
7494;DHT22;3788;49.902;8.590;2023-10-19T01:29:25;12.70;99.90
7494;DHT22;3788;49.902;8.590;2023-10-19T01:31:53;12.70;99.90
7494;DHT22;3788;49.902;8.590;2023-10-19T01:34:30;12.70;99.90
7494;DHT22;3788;49.902;8.590;2023-10-19T01:36:58;12.80;99.90
7494;DHT22;3788;49.902;8.590;2023-10-19T01:39:30;12.80;99.90
7494;DHT22;3788;49.902;8.590;2023-10-19T01:41:56;12.80;99.90
7494;DHT22;3788;49.902;8.590;2023-10-19T01:44:24;12.90;99.90
7494;DHT22;3788;49.902;8.590;2023-10-19T01:46:50;12.90;99.90
7494;DHT22;3788;49.902;8.590;2023-10-19T01:49:17;12.90;99.90
7494;DHT22;3788;49.902;8.590;2023-10-19T01:51:52;13.00;99.90
7494;DHT22;3788;49.902;8.590;2023-10-19T01:54:19;13.00;99.90
7494;DHT22;3788;49.902;8.590;2023-10-19T01:56:50;13.00;99.90
7494;DHT22;3788;49.902;8.590;2023-10-19T01:59:20;13.00;99.90
7494;DHT22;3788;49.902;8.590;2023-10-19T02:01:46;13.10;99.90
7494;DHT22;3788;49.902;8.590;2023-10-19T02:04:15;13.10;99.90
7494;DHT22;3788;49.902;8.590;2023-10-19T02:06:40;13.10;99.90
7494;DHT22;3788;49.902;8.590;2023-10-19T02:09:08;13.10;99.90
7494;DHT22;3788;49.902;8.590;2023-10-19T02:11:35;13.10;99.90
7494;DHT22;3788;49.902;8.590;2023-10-19T02:14:04;13.10;99.90
7494;DHT22;3788;49.902;8.590;2023-10-19T02:16:39;13.10;99.90
7494;DHT22;3788;49.902;8.590;2023-10-19T02:19:06;13.10;99.90
7494;DHT22;3788;49.902;8.590;2023-10-19T02:21:32;13.10;99.90
7494;DHT22;3788;49.902;8.590;2023-10-19T02:24:04;13.10;99.90
7494;DHT22;3788;49.902;8.590;2023-10-19T02:26:30;13.10;99.90
7494;DHT22;3788;49.902;8.590;2023-10-19T02:28:57;13.10;99.90
7494;DHT22;3788;49.902;8.590;2023-10-19T02:31:25;13.10;99.90
7494;DHT22;3788;49.902;8.590;2023-10-19T02:33:53;13.10;99.90
7494;DHT22;3788;49.902;8.590;2023-10-19T02:36:24;13.10;99.90
7494;DHT22;3788;49.902;8.590;2023-10-19T02:38:54;13.10;99.90
7494;DHT22;3788;49.902;8.590;2023-10-19T02:41:20;13.10;99.90
7494;DHT22;3788;49.902;8.590;2023-10-19T02:43:47;13.10;99.90
7494;DHT22;3788;49.902;8.590;2023-10-19T02:46:17;13.10;99.90
7494;DHT22;3788;49.902;8.590;2023-10-19T02:48:45;13.10;99.90
7494;DHT22;3788;49.902;8.590;2023-10-19T02:51:11;13.00;99.90
7494;DHT22;3788;49.902;8.590;2023-10-19T02:53:38;13.00;99.90
7494;DHT22;3788;49.902;8.590;2023-10-19T02:56:12;13.00;99.90
7494;DHT22;3788;49.902;8.590;2023-10-19T02:58:42;13.00;99.90
7494;DHT22;3788;49.902;8.590;2023-10-19T03:01:13;13.00;99.90
7494;DHT22;3788;49.902;8.590;2023-10-19T03:03:42;13.00;99.90
7494;DHT22;3788;49.902;8.590;2023-10-19T03:06:13;13.00;99.90
7494;DHT22;3788;49.902;8.590;2023-10-19T03:08:38;13.00;99.90
7494;DHT22;3788;49.902;8.590;2023-10-19T03:11:05;13.00;99.90
7494;DHT22;3788;49.902;8.590;2023-10-19T03:13:30;13.00;99.90
7494;DHT22;3788;49.902;8.590;2023-10-19T03:15:59;13.00;99.90
7494;DHT22;3788;49.902;8.590;2023-10-19T03:18:26;13.00;99.90
7494;DHT22;3788;49.902;8.590;2023-10-19T03:20:54;13.00;99.90
7494;DHT22;3788;49.902;8.590;2023-10-19T03:23:21;13.00;99.90
7494;DHT22;3788;49.902;8.590;2023-10-19T03:25:53;13.00;99.90
7494;DHT22;3788;49.902;8.590;2023-10-19T03:28:37;13.00;99.90
7494;DHT22;3788;49.902;8.590;2023-10-19T03:31:06;13.00;99.90
7494;DHT22;3788;49.902;8.590;2023-10-19T03:33:33;13.00;99.90
7494;DHT22;3788;49.902;8.590;2023-10-19T03:36:02;13.00;99.90
7494;DHT22;3788;49.902;8.590;2023-10-19T03:38:31;12.90;99.90
7494;DHT22;3788;49.902;8.590;2023-10-19T03:41:00;12.90;99.90
7494;DHT22;3788;49.902;8.590;2023-10-19T03:43:33;12.90;99.90
7494;DHT22;3788;49.902;8.590;2023-10-19T03:46:02;12.90;99.90
7494;DHT22;3788;49.902;8.590;2023-10-19T03:48:32;12.90;99.90
7494;DHT22;3788;49.902;8.590;2023-10-19T03:51:03;12.80;99.90
7494;DHT22;3788;49.902;8.590;2023-10-19T03:53:32;12.80;99.90
7494;DHT22;3788;49.902;8.590;2023-10-19T03:55:59;12.80;99.90
7494;DHT22;3788;49.902;8.590;2023-10-19T03:58:28;12.80;99.90
7494;DHT22;3788;49.902;8.590;2023-10-19T04:00:56;12.80;99.90
7494;DHT22;3788;49.902;8.590;2023-10-19T04:03:26;12.80;99.90
7494;DHT22;3788;49.902;8.590;2023-10-19T04:05:56;12.80;99.90
7494;DHT22;3788;49.902;8.590;2023-10-19T04:08:25;12.90;99.90
7494;DHT22;3788;49.902;8.590;2023-10-19T04:10:53;12.90;99.90
7494;DHT22;3788;49.902;8.590;2023-10-19T04:13:34;12.90;99.90
7494;DHT22;3788;49.902;8.590;2023-10-19T04:16:01;12.90;99.90
7494;DHT22;3788;49.902;8.590;2023-10-19T04:18:28;12.90;99.90
7494;DHT22;3788;49.902;8.590;2023-10-19T04:20:55;12.90;99.90
7494;DHT22;3788;49.902;8.590;2023-10-19T04:23:23;12.90;99.90
7494;DHT22;3788;49.902;8.590;2023-10-19T04:25:54;12.90;99.90
7494;DHT22;3788;49.902;8.590;2023-10-19T04:28:24;12.90;99.90
7494;DHT22;3788;49.902;8.590;2023-10-19T04:30:59;12.90;99.90
7494;DHT22;3788;49.902;8.590;2023-10-19T04:33:28;12.90;99.90
7494;DHT22;3788;49.902;8.590;2023-10-19T04:35:55;12.90;99.90
7494;DHT22;3788;49.902;8.590;2023-10-19T04:38:25;12.90;99.90
7494;DHT22;3788;49.902;8.590;2023-10-19T04:40:53;12.90;99.90
7494;DHT22;3788;49.902;8.590;2023-10-19T04:43:20;12.90;99.90
7494;DHT22;3788;49.902;8.590;2023-10-19T04:45:47;12.80;99.90
7494;DHT22;3788;49.902;8.590;2023-10-19T04:48:13;12.80;99.90
7494;DHT22;3788;49.902;8.590;2023-10-19T04:50:40;12.80;99.90
7494;DHT22;3788;49.902;8.590;2023-10-19T04:53:07;12.80;99.90
7494;DHT22;3788;49.902;8.590;2023-10-19T04:55:34;12.70;99.90
7494;DHT22;3788;49.902;8.590;2023-10-19T04:58:02;12.70;99.90
7494;DHT22;3788;49.902;8.590;2023-10-19T05:00:28;12.70;99.90
7494;DHT22;3788;49.902;8.590;2023-10-19T05:02:55;12.70;99.90
7494;DHT22;3788;49.902;8.590;2023-10-19T05:05:22;12.80;99.90
7494;DHT22;3788;49.902;8.590;2023-10-19T05:07:48;12.80;99.90
7494;DHT22;3788;49.902;8.590;2023-10-19T05:10:15;12.80;99.90
7494;DHT22;3788;49.902;8.590;2023-10-19T05:12:42;12.90;99.90
7494;DHT22;3788;49.902;8.590;2023-10-19T05:15:11;12.90;99.90
7494;DHT22;3788;49.902;8.590;2023-10-19T05:17:37;12.90;99.90
7494;DHT22;3788;49.902;8.590;2023-10-19T05:20:05;12.90;99.90
7494;DHT22;3788;49.902;8.590;2023-10-19T05:22:33;12.90;99.90
7494;DHT22;3788;49.902;8.590;2023-10-19T05:24:59;13.00;99.90
7494;DHT22;3788;49.902;8.590;2023-10-19T05:27:26;13.00;99.90
7494;DHT22;3788;49.902;8.590;2023-10-19T05:29:53;13.00;99.90
7494;DHT22;3788;49.902;8.590;2023-10-19T05:32:21;13.00;99.90
7494;DHT22;3788;49.902;8.590;2023-10-19T05:34:49;13.10;99.90
7494;DHT22;3788;49.902;8.590;2023-10-19T05:37:16;13.10;99.90
7494;DHT22;3788;49.902;8.590;2023-10-19T05:39:43;13.20;99.90
7494;DHT22;3788;49.902;8.590;2023-10-19T05:42:10;13.20;99.90
7494;DHT22;3788;49.902;8.590;2023-10-19T05:44:36;13.20;99.90
7494;DHT22;3788;49.902;8.590;2023-10-19T05:47:05;13.20;99.90
7494;DHT22;3788;49.902;8.590;2023-10-19T05:49:34;13.30;99.90
7494;DHT22;3788;49.902;8.590;2023-10-19T05:52:01;13.30;99.90
7494;DHT22;3788;49.902;8.590;2023-10-19T05:54:28;13.30;99.90
7494;DHT22;3788;49.902;8.590;2023-10-19T05:56:56;13.30;99.90
7494;DHT22;3788;49.902;8.590;2023-10-19T05:59:23;13.30;99.90
7494;DHT22;3788;49.902;8.590;2023-10-19T06:01:51;13.30;99.90
7494;DHT22;3788;49.902;8.590;2023-10-19T06:04:18;13.30;99.90
7494;DHT22;3788;49.902;8.590;2023-10-19T06:06:47;13.30;99.90
7494;DHT22;3788;49.902;8.590;2023-10-19T06:09:14;13.30;99.90
7494;DHT22;3788;49.902;8.590;2023-10-19T06:11:41;13.30;99.90
7494;DHT22;3788;49.902;8.590;2023-10-19T06:14:08;13.40;99.90
7494;DHT22;3788;49.902;8.590;2023-10-19T06:16:35;13.40;99.90
7494;DHT22;3788;49.902;8.590;2023-10-19T06:19:02;13.40;99.90
7494;DHT22;3788;49.902;8.590;2023-10-19T06:21:28;13.40;99.90
7494;DHT22;3788;49.902;8.590;2023-10-19T06:23:58;13.40;99.90
7494;DHT22;3788;49.902;8.590;2023-10-19T06:26:25;13.50;99.90
7494;DHT22;3788;49.902;8.590;2023-10-19T06:28:51;13.50;99.90
7494;DHT22;3788;49.902;8.590;2023-10-19T06:31:22;13.60;99.90
7494;DHT22;3788;49.902;8.590;2023-10-19T06:33:49;13.60;99.90
7494;DHT22;3788;49.902;8.590;2023-10-19T06:36:16;13.60;99.90
7494;DHT22;3788;49.902;8.590;2023-10-19T06:38:43;13.60;99.90
7494;DHT22;3788;49.902;8.590;2023-10-19T06:41:12;13.60;99.90
7494;DHT22;3788;49.902;8.590;2023-10-19T06:43:39;13.70;99.90
7494;DHT22;3788;49.902;8.590;2023-10-19T06:46:07;13.70;99.90
7494;DHT22;3788;49.902;8.590;2023-10-19T06:48:36;13.80;99.90
7494;DHT22;3788;49.902;8.590;2023-10-19T06:51:03;13.80;99.90
7494;DHT22;3788;49.902;8.590;2023-10-19T06:53:31;13.80;99.90
7494;DHT22;3788;49.902;8.590;2023-10-19T06:55:58;13.90;99.90
7494;DHT22;3788;49.902;8.590;2023-10-19T06:58:26;13.90;99.90
7494;DHT22;3788;49.902;8.590;2023-10-19T07:00:53;13.90;99.90
7494;DHT22;3788;49.902;8.590;2023-10-19T07:03:25;14.00;99.90
7494;DHT22;3788;49.902;8.590;2023-10-19T07:05:53;14.00;99.90
7494;DHT22;3788;49.902;8.590;2023-10-19T07:08:21;14.00;99.90
7494;DHT22;3788;49.902;8.590;2023-10-19T07:10:48;14.00;99.90
7494;DHT22;3788;49.902;8.590;2023-10-19T07:13:16;14.00;99.90
7494;DHT22;3788;49.902;8.590;2023-10-19T07:15:46;14.10;99.90
7494;DHT22;3788;49.902;8.590;2023-10-19T07:18:14;14.10;99.90
7494;DHT22;3788;49.902;8.590;2023-10-19T07:20:41;14.10;99.90
7494;DHT22;3788;49.902;8.590;2023-10-19T07:23:08;14.10;99.90
7494;DHT22;3788;49.902;8.590;2023-10-19T07:25:44;14.20;99.90
7494;DHT22;3788;49.902;8.590;2023-10-19T07:28:11;14.20;99.90
7494;DHT22;3788;49.902;8.590;2023-10-19T07:30:39;14.20;99.90
7494;DHT22;3788;49.902;8.590;2023-10-19T07:33:08;14.20;99.90
7494;DHT22;3788;49.902;8.590;2023-10-19T07:35:36;14.20;99.90
7494;DHT22;3788;49.902;8.590;2023-10-19T07:38:04;14.30;99.90
7494;DHT22;3788;49.902;8.590;2023-10-19T07:40:33;14.30;99.90
7494;DHT22;3788;49.902;8.590;2023-10-19T07:43:00;14.40;99.90
7494;DHT22;3788;49.902;8.590;2023-10-19T07:45:27;14.40;99.90
7494;DHT22;3788;49.902;8.590;2023-10-19T07:47:54;14.40;99.90
7494;DHT22;3788;49.902;8.590;2023-10-19T07:50:22;14.50;99.90
7494;DHT22;3788;49.902;8.590;2023-10-19T07:52:50;14.60;99.90
7494;DHT22;3788;49.902;8.590;2023-10-19T07:55:19;14.60;99.90
7494;DHT22;3788;49.902;8.590;2023-10-19T07:57:49;14.70;99.90
7494;DHT22;3788;49.902;8.590;2023-10-19T08:00:16;14.70;99.90
7494;DHT22;3788;49.902;8.590;2023-10-19T08:02:44;14.80;99.90
7494;DHT22;3788;49.902;8.590;2023-10-19T08:05:11;14.90;99.90
7494;DHT22;3788;49.902;8.590;2023-10-19T08:07:40;14.90;99.90
7494;DHT22;3788;49.902;8.590;2023-10-19T08:10:09;15.00;99.90
7494;DHT22;3788;49.902;8.590;2023-10-19T08:12:36;15.00;99.90
7494;DHT22;3788;49.902;8.590;2023-10-19T08:15:03;14.90;99.90
7494;DHT22;3788;49.902;8.590;2023-10-19T08:17:32;14.90;99.90
7494;DHT22;3788;49.902;8.590;2023-10-19T08:19:59;14.90;99.90
7494;DHT22;3788;49.902;8.590;2023-10-19T08:22:28;14.90;99.90
7494;DHT22;3788;49.902;8.590;2023-10-19T08:24:57;15.00;99.90
7494;DHT22;3788;49.902;8.590;2023-10-19T08:27:23;15.10;99.90
7494;DHT22;3788;49.902;8.590;2023-10-19T08:29:50;15.20;99.90
7494;DHT22;3788;49.902;8.590;2023-10-19T08:32:17;15.30;99.90
7494;DHT22;3788;49.902;8.590;2023-10-19T08:34:43;15.50;99.90
7494;DHT22;3788;49.902;8.590;2023-10-19T08:37:10;15.70;99.90
7494;DHT22;3788;49.902;8.590;2023-10-19T08:39:37;15.80;99.90
7494;DHT22;3788;49.902;8.590;2023-10-19T08:42:05;16.20;99.90
7494;DHT22;3788;49.902;8.590;2023-10-19T08:44:32;16.60;99.90
7494;DHT22;3788;49.902;8.590;2023-10-19T08:46:59;17.10;99.90
7494;DHT22;3788;49.902;8.590;2023-10-19T08:49:26;17.40;99.90
7494;DHT22;3788;49.902;8.590;2023-10-19T08:51:54;17.60;99.90
7494;DHT22;3788;49.902;8.590;2023-10-19T08:54:22;17.80;99.90
7494;DHT22;3788;49.902;8.590;2023-10-19T08:56:52;18.00;99.90
7494;DHT22;3788;49.902;8.590;2023-10-19T08:59:19;18.20;99.90
7494;DHT22;3788;49.902;8.590;2023-10-19T09:01:47;18.30;99.90
7494;DHT22;3788;49.902;8.590;2023-10-19T09:04:14;18.30;99.90
7494;DHT22;3788;49.902;8.590;2023-10-19T09:06:42;18.40;99.90
7494;DHT22;3788;49.902;8.590;2023-10-19T09:09:09;18.50;99.90
7494;DHT22;3788;49.902;8.590;2023-10-19T09:11:42;18.60;99.90
7494;DHT22;3788;49.902;8.590;2023-10-19T09:14:08;18.90;99.90
7494;DHT22;3788;49.902;8.590;2023-10-19T09:16:53;19.10;99.90
7494;DHT22;3788;49.902;8.590;2023-10-19T09:19:21;19.60;99.90
7494;DHT22;3788;49.902;8.590;2023-10-19T09:21:47;20.10;99.90
7494;DHT22;3788;49.902;8.590;2023-10-19T09:24:15;20.60;99.90
7494;DHT22;3788;49.902;8.590;2023-10-19T09:26:42;20.90;99.90
7494;DHT22;3788;49.902;8.590;2023-10-19T09:29:13;21.00;99.90
7494;DHT22;3788;49.902;8.590;2023-10-19T09:31:46;21.10;99.90
7494;DHT22;3788;49.902;8.590;2023-10-19T09:34:13;21.30;99.90
7494;DHT22;3788;49.902;8.590;2023-10-19T09:36:43;21.50;99.90
7494;DHT22;3788;49.902;8.590;2023-10-19T09:39:10;21.80;99.90
7494;DHT22;3788;49.902;8.590;2023-10-19T09:41:39;21.90;99.90
7494;DHT22;3788;49.902;8.590;2023-10-19T09:44:09;21.80;99.60
7494;DHT22;3788;49.902;8.590;2023-10-19T09:46:39;21.60;99.50
7494;DHT22;3788;49.902;8.590;2023-10-19T09:49:09;21.60;99.50
7494;DHT22;3788;49.902;8.590;2023-10-19T09:51:39;21.50;99.70
7494;DHT22;3788;49.902;8.590;2023-10-19T09:54:13;21.30;99.70
7494;DHT22;3788;49.902;8.590;2023-10-19T09:56:42;21.30;99.90
7494;DHT22;3788;49.902;8.590;2023-10-19T09:59:18;21.40;99.90
7494;DHT22;3788;49.902;8.590;2023-10-19T10:02:07;21.40;99.90
7494;DHT22;3788;49.902;8.590;2023-10-19T10:04:37;21.30;99.70
7494;DHT22;3788;49.902;8.590;2023-10-19T10:07:06;21.10;99.80
7494;DHT22;3788;49.902;8.590;2023-10-19T10:09:35;20.90;99.90
7494;DHT22;3788;49.902;8.590;2023-10-19T10:12:19;20.80;99.90
7494;DHT22;3788;49.902;8.590;2023-10-19T10:14:58;20.90;99.90
7494;DHT22;3788;49.902;8.590;2023-10-19T10:17:27;20.90;99.90
7494;DHT22;3788;49.902;8.590;2023-10-19T10:19:56;21.00;99.90
7494;DHT22;3788;49.902;8.590;2023-10-19T10:22:25;21.10;99.90
7494;DHT22;3788;49.902;8.590;2023-10-19T10:24:55;21.00;99.80
7494;DHT22;3788;49.902;8.590;2023-10-19T10:27:22;20.90;99.90
7494;DHT22;3788;49.902;8.590;2023-10-19T10:29:59;20.80;99.90
7494;DHT22;3788;49.902;8.590;2023-10-19T10:32:44;20.80;99.90
7494;DHT22;3788;49.902;8.590;2023-10-19T10:38:16;20.80;99.90
7494;DHT22;3788;49.902;8.590;2023-10-19T10:40:43;20.80;99.90
7494;DHT22;3788;49.902;8.590;2023-10-19T10:43:11;20.70;99.90
7494;DHT22;3788;49.902;8.590;2023-10-19T10:45:37;20.60;99.90
7494;DHT22;3788;49.902;8.590;2023-10-19T10:48:11;20.50;99.90
7494;DHT22;3788;49.902;8.590;2023-10-19T10:50:39;20.40;99.90
7494;DHT22;3788;49.902;8.590;2023-10-19T10:53:07;20.30;99.90
7494;DHT22;3788;49.902;8.590;2023-10-19T10:55:33;20.20;99.90
7494;DHT22;3788;49.902;8.590;2023-10-19T10:58:00;20.00;99.90
7494;DHT22;3788;49.902;8.590;2023-10-19T11:00:27;19.90;99.90
7494;DHT22;3788;49.902;8.590;2023-10-19T11:03:01;19.80;99.90
7494;DHT22;3788;49.902;8.590;2023-10-19T11:05:29;19.70;99.90
7494;DHT22;3788;49.902;8.590;2023-10-19T11:08:06;19.60;99.90
7494;DHT22;3788;49.902;8.590;2023-10-19T11:10:33;19.50;99.90
7494;DHT22;3788;49.902;8.590;2023-10-19T11:13:01;19.40;99.90
7494;DHT22;3788;49.902;8.590;2023-10-19T11:15:29;19.40;99.90
7494;DHT22;3788;49.902;8.590;2023-10-19T11:17:55;19.40;99.90
7494;DHT22;3788;49.902;8.590;2023-10-19T11:20:24;19.30;99.90
7494;DHT22;3788;49.902;8.590;2023-10-19T11:22:53;19.30;99.90
7494;DHT22;3788;49.902;8.590;2023-10-19T11:25:24;19.30;99.90
7494;DHT22;3788;49.902;8.590;2023-10-19T11:27:53;19.20;99.90
7494;DHT22;3788;49.902;8.590;2023-10-19T11:30:24;19.20;99.90
7494;DHT22;3788;49.902;8.590;2023-10-19T11:32:51;19.20;99.90
7494;DHT22;3788;49.902;8.590;2023-10-19T11:35:23;19.20;99.90
7494;DHT22;3788;49.902;8.590;2023-10-19T11:37:52;19.10;99.90
7494;DHT22;3788;49.902;8.590;2023-10-19T11:40:20;19.10;99.90
7494;DHT22;3788;49.902;8.590;2023-10-19T11:42:48;19.10;99.90
7494;DHT22;3788;49.902;8.590;2023-10-19T11:45:15;19.00;99.90
7494;DHT22;3788;49.902;8.590;2023-10-19T11:47:42;19.00;99.90
7494;DHT22;3788;49.902;8.590;2023-10-19T11:50:10;19.00;99.90
7494;DHT22;3788;49.902;8.590;2023-10-19T11:52:40;19.00;99.90
7494;DHT22;3788;49.902;8.590;2023-10-19T11:55:07;19.10;99.90
7494;DHT22;3788;49.902;8.590;2023-10-19T11:57:34;19.10;99.90
7494;DHT22;3788;49.902;8.590;2023-10-19T12:00:03;19.20;99.90
7494;DHT22;3788;49.902;8.590;2023-10-19T12:02:35;19.20;99.90
7494;DHT22;3788;49.902;8.590;2023-10-19T12:05:03;19.20;99.90
7494;DHT22;3788;49.902;8.590;2023-10-19T12:07:29;19.20;99.90
7494;DHT22;3788;49.902;8.590;2023-10-19T12:09:58;19.30;99.90
7494;DHT22;3788;49.902;8.590;2023-10-19T12:12:24;19.30;99.90
7494;DHT22;3788;49.902;8.590;2023-10-19T12:14:51;19.30;99.90
7494;DHT22;3788;49.902;8.590;2023-10-19T12:17:21;19.30;99.90
7494;DHT22;3788;49.902;8.590;2023-10-19T12:19:49;19.20;99.90
7494;DHT22;3788;49.902;8.590;2023-10-19T12:22:16;19.20;99.90
7494;DHT22;3788;49.902;8.590;2023-10-19T12:24:43;19.10;99.90
7494;DHT22;3788;49.902;8.590;2023-10-19T12:27:09;19.10;99.90
7494;DHT22;3788;49.902;8.590;2023-10-19T12:29:39;19.00;99.90
7494;DHT22;3788;49.902;8.590;2023-10-19T12:32:06;18.90;99.90
7494;DHT22;3788;49.902;8.590;2023-10-19T12:34:36;18.80;99.90
7494;DHT22;3788;49.902;8.590;2023-10-19T12:37:02;18.80;99.90
7494;DHT22;3788;49.902;8.590;2023-10-19T12:39:29;18.70;99.90
7494;DHT22;3788;49.902;8.590;2023-10-19T12:42:08;18.70;99.90
7494;DHT22;3788;49.902;8.590;2023-10-19T12:44:35;18.60;99.90
7494;DHT22;3788;49.902;8.590;2023-10-19T12:47:07;18.50;99.90
7494;DHT22;3788;49.902;8.590;2023-10-19T12:49:38;18.50;99.90
7494;DHT22;3788;49.902;8.590;2023-10-19T12:52:04;18.50;99.90
7494;DHT22;3788;49.902;8.590;2023-10-19T12:54:32;18.40;99.90
7494;DHT22;3788;49.902;8.590;2023-10-19T12:57:00;18.30;99.90
7494;DHT22;3788;49.902;8.590;2023-10-19T12:59:29;18.30;99.90
7494;DHT22;3788;49.902;8.590;2023-10-19T13:01:56;18.20;99.90
7494;DHT22;3788;49.902;8.590;2023-10-19T13:04:24;18.20;99.90
7494;DHT22;3788;49.902;8.590;2023-10-19T13:06:52;18.10;99.90
7494;DHT22;3788;49.902;8.590;2023-10-19T13:09:23;18.00;99.90
7494;DHT22;3788;49.902;8.590;2023-10-19T13:11:56;18.00;99.90
7494;DHT22;3788;49.902;8.590;2023-10-19T13:14:23;18.00;99.90
7494;DHT22;3788;49.902;8.590;2023-10-19T13:16:50;18.00;99.90
7494;DHT22;3788;49.902;8.590;2023-10-19T13:19:18;17.90;99.90
7494;DHT22;3788;49.902;8.590;2023-10-19T13:21:46;17.90;99.90
7494;DHT22;3788;49.902;8.590;2023-10-19T13:24:14;18.00;99.90
7494;DHT22;3788;49.902;8.590;2023-10-19T13:26:41;18.00;99.90
7494;DHT22;3788;49.902;8.590;2023-10-19T13:29:12;18.00;99.90
7494;DHT22;3788;49.902;8.590;2023-10-19T13:31:39;18.00;99.90
7494;DHT22;3788;49.902;8.590;2023-10-19T13:34:05;17.90;99.90
7494;DHT22;3788;49.902;8.590;2023-10-19T13:36:35;17.90;99.90
7494;DHT22;3788;49.902;8.590;2023-10-19T13:39:04;17.80;99.90
7494;DHT22;3788;49.902;8.590;2023-10-19T13:41:33;17.70;99.90
7494;DHT22;3788;49.902;8.590;2023-10-19T13:44:00;17.70;99.90
7494;DHT22;3788;49.902;8.590;2023-10-19T13:46:26;17.70;99.90
7494;DHT22;3788;49.902;8.590;2023-10-19T13:48:54;17.60;99.90
7494;DHT22;3788;49.902;8.590;2023-10-19T13:51:21;17.60;99.90
7494;DHT22;3788;49.902;8.590;2023-10-19T13:53:48;17.50;99.90
7494;DHT22;3788;49.902;8.590;2023-10-19T13:56:15;17.50;99.90
7494;DHT22;3788;49.902;8.590;2023-10-19T13:58:43;17.40;99.90
7494;DHT22;3788;49.902;8.590;2023-10-19T14:01:12;17.40;99.90
7494;DHT22;3788;49.902;8.590;2023-10-19T14:03:39;17.30;99.90
7494;DHT22;3788;49.902;8.590;2023-10-19T14:06:10;17.30;99.90
7494;DHT22;3788;49.902;8.590;2023-10-19T14:08:37;17.20;99.90
7494;DHT22;3788;49.902;8.590;2023-10-19T14:11:04;17.20;99.90
7494;DHT22;3788;49.902;8.590;2023-10-19T14:13:32;17.20;99.90
7494;DHT22;3788;49.902;8.590;2023-10-19T14:16:00;17.20;99.90
7494;DHT22;3788;49.902;8.590;2023-10-19T14:18:30;17.20;99.90
7494;DHT22;3788;49.902;8.590;2023-10-19T14:20:57;17.20;99.90
7494;DHT22;3788;49.902;8.590;2023-10-19T14:23:24;17.20;99.90
7494;DHT22;3788;49.902;8.590;2023-10-19T14:25:51;17.20;99.90
7494;DHT22;3788;49.902;8.590;2023-10-19T14:28:17;17.20;99.90
7494;DHT22;3788;49.902;8.590;2023-10-19T14:30:44;17.20;99.90
7494;DHT22;3788;49.902;8.590;2023-10-19T14:33:12;17.20;99.90
7494;DHT22;3788;49.902;8.590;2023-10-19T14:35:39;17.20;99.90
7494;DHT22;3788;49.902;8.590;2023-10-19T14:38:07;17.10;99.90
7494;DHT22;3788;49.902;8.590;2023-10-19T14:40:34;17.10;99.90
7494;DHT22;3788;49.902;8.590;2023-10-19T14:43:01;17.10;99.90
7494;DHT22;3788;49.902;8.590;2023-10-19T14:45:29;17.10;99.90
7494;DHT22;3788;49.902;8.590;2023-10-19T14:47:56;17.00;99.90
7494;DHT22;3788;49.902;8.590;2023-10-19T14:50:26;17.10;99.90
7494;DHT22;3788;49.902;8.590;2023-10-19T14:52:54;17.10;99.90
7494;DHT22;3788;49.902;8.590;2023-10-19T14:55:21;17.00;99.90
7494;DHT22;3788;49.902;8.590;2023-10-19T14:57:50;17.00;99.90
7494;DHT22;3788;49.902;8.590;2023-10-19T15:00:20;17.00;99.90
7494;DHT22;3788;49.902;8.590;2023-10-19T15:02:54;17.00;99.90
7494;DHT22;3788;49.902;8.590;2023-10-19T15:05:22;17.00;99.90
7494;DHT22;3788;49.902;8.590;2023-10-19T15:07:52;17.00;99.90
7494;DHT22;3788;49.902;8.590;2023-10-19T15:10:22;16.90;99.90
7494;DHT22;3788;49.902;8.590;2023-10-19T15:12:49;17.00;99.90
7494;DHT22;3788;49.902;8.590;2023-10-19T15:15:16;17.00;99.90
7494;DHT22;3788;49.902;8.590;2023-10-19T15:17:43;16.90;99.90
7494;DHT22;3788;49.902;8.590;2023-10-19T15:20:11;16.90;99.90
7494;DHT22;3788;49.902;8.590;2023-10-19T15:22:40;16.90;99.90
7494;DHT22;3788;49.902;8.590;2023-10-19T15:25:08;16.90;99.90
7494;DHT22;3788;49.902;8.590;2023-10-19T15:27:36;16.90;99.90
7494;DHT22;3788;49.902;8.590;2023-10-19T15:30:04;17.00;99.90
7494;DHT22;3788;49.902;8.590;2023-10-19T15:32:31;17.00;99.90
7494;DHT22;3788;49.902;8.590;2023-10-19T15:34:58;17.00;99.90
7494;DHT22;3788;49.902;8.590;2023-10-19T15:37:25;17.10;99.90
7494;DHT22;3788;49.902;8.590;2023-10-19T15:39:52;17.10;99.90
7494;DHT22;3788;49.902;8.590;2023-10-19T15:42:20;17.10;99.90
7494;DHT22;3788;49.902;8.590;2023-10-19T15:44:47;17.10;99.90
7494;DHT22;3788;49.902;8.590;2023-10-19T15:47:15;17.20;99.90
7494;DHT22;3788;49.902;8.590;2023-10-19T15:49:46;17.20;99.90
7494;DHT22;3788;49.902;8.590;2023-10-19T15:52:14;17.20;99.90
7494;DHT22;3788;49.902;8.590;2023-10-19T15:54:43;17.20;99.90
7494;DHT22;3788;49.902;8.590;2023-10-19T15:57:10;17.10;99.90
7494;DHT22;3788;49.902;8.590;2023-10-19T15:59:38;17.10;99.90
7494;DHT22;3788;49.902;8.590;2023-10-19T16:02:05;17.10;99.90
7494;DHT22;3788;49.902;8.590;2023-10-19T16:04:32;17.00;99.90
7494;DHT22;3788;49.902;8.590;2023-10-19T16:06:58;17.00;99.90
7494;DHT22;3788;49.902;8.590;2023-10-19T16:09:25;17.00;99.90
7494;DHT22;3788;49.902;8.590;2023-10-19T16:11:52;17.00;99.90
7494;DHT22;3788;49.902;8.590;2023-10-19T16:14:18;17.00;99.90